createdAt,value
2022-11-06T00:01:35.486Z,64.40
2022-11-06T00:04:02.471Z,63.70
2022-11-06T00:06:47.859Z,63.60
2022-11-06T00:09:19.255Z,63.70
2022-11-06T00:11:49.005Z,63.80
2022-11-06T00:14:17.049Z,63.80
2022-11-06T00:16:45.823Z,63.70
2022-11-06T00:19:13.106Z,63.20
2022-11-06T00:21:40.274Z,62.90
2022-11-06T00:24:09.642Z,62.70
2022-11-06T00:26:37.157Z,62.60
2022-11-06T00:29:06.081Z,62.70
2022-11-06T00:31:35.866Z,62.90
2022-11-06T00:34:03.788Z,63.00
2022-11-06T00:36:31.427Z,63.10
2022-11-06T00:38:59.618Z,63.10
2022-11-06T00:41:27.582Z,63.20
2022-11-06T00:43:58.921Z,63.10
2022-11-06T00:46:26.808Z,62.90
2022-11-06T00:48:54.751Z,62.60
2022-11-06T00:51:27.854Z,62.60
2022-11-06T00:53:57.044Z,62.50
2022-11-06T00:56:24.426Z,62.50
2022-11-06T00:58:52.142Z,62.40
2022-11-06T01:01:33.729Z,62.30
2022-11-06T01:04:21.783Z,62.30
2022-11-06T01:06:53.008Z,62.50
2022-11-06T01:09:22.793Z,62.50
2022-11-06T01:14:43.658Z,62.90
2022-11-06T01:17:10.838Z,63.10
2022-11-06T01:19:37.864Z,63.20
2022-11-06T01:22:04.850Z,63.30
2022-11-06T01:24:32.811Z,63.50
2022-11-06T01:29:47.391Z,63.90
2022-11-06T01:32:14.521Z,64.10
2022-11-06T01:34:41.621Z,64.20
2022-11-06T01:37:14.006Z,64.30
2022-11-06T01:39:41.879Z,64.50
2022-11-06T01:42:11.899Z,64.60
2022-11-06T01:44:44.977Z,64.80
2022-11-06T01:47:25.240Z,64.80
2022-11-06T01:49:56.420Z,64.90
2022-11-06T01:52:25.111Z,64.90
2022-11-06T01:54:57.063Z,65.00
2022-11-06T01:57:24.328Z,65.10
2022-11-06T01:59:53.836Z,65.10
2022-11-06T02:02:21.581Z,64.90
2022-11-06T02:04:49.395Z,64.60
2022-11-06T02:07:19.121Z,64.20
2022-11-06T02:09:46.339Z,64.00
2022-11-06T02:12:32.403Z,63.70
2022-11-06T02:15:08.760Z,63.40
2022-11-06T02:17:53.128Z,63.10
2022-11-06T02:20:39.450Z,62.80
2022-11-06T02:23:30.040Z,62.60
2022-11-06T02:26:12.516Z,62.70
2022-11-06T02:28:47.831Z,62.80
2022-11-06T02:31:24.944Z,62.80
2022-11-06T02:34:03.291Z,62.50
2022-11-06T02:36:35.661Z,62.60
2022-11-06T02:39:07.898Z,62.60
2022-11-06T02:41:40.811Z,62.80
2022-11-06T02:44:13.866Z,62.80
2022-11-06T02:46:49.427Z,62.80
2022-11-06T02:49:41.581Z,62.60
2022-11-06T02:52:35.310Z,62.50
2022-11-06T02:55:11.444Z,62.30
2022-11-06T02:57:43.602Z,62.20
2022-11-06T03:00:14.163Z,62.20
2022-11-06T03:03:05.199Z,62.30
2022-11-06T03:05:49.665Z,62.30
2022-11-06T03:08:46.430Z,62.30
2022-11-06T03:11:24.188Z,62.40
2022-11-06T03:14:02.324Z,62.50
2022-11-06T03:16:42.647Z,62.70
2022-11-06T03:19:42.723Z,62.90
2022-11-06T03:22:31.956Z,63.20
2022-11-06T03:25:20.608Z,63.30
2022-11-06T03:28:04.256Z,63.70
2022-11-06T03:30:35.480Z,63.70
2022-11-06T03:33:21.277Z,63.80
2022-11-06T03:35:53.140Z,64.00
2022-11-06T03:38:23.149Z,64.20
2022-11-06T03:41:01.977Z,64.30
2022-11-06T03:43:34.559Z,64.60
2022-11-06T03:46:04.527Z,65.10
2022-11-06T03:48:35.940Z,65.20
2022-11-06T03:51:21.437Z,65.20
2022-11-06T03:53:49.717Z,65.30
2022-11-06T03:56:23.874Z,65.10
2022-11-06T03:58:51.919Z,64.90
2022-11-06T04:01:24.366Z,64.70
2022-11-06T04:03:59.551Z,64.40
2022-11-06T04:06:51.336Z,64.20
2022-11-06T04:09:39.078Z,64.00
2022-11-06T04:12:27.543Z,64.20
2022-11-06T04:14:56.426Z,64.20
2022-11-06T04:17:26.800Z,64.00
2022-11-06T04:19:58.446Z,63.80
2022-11-06T04:22:44.253Z,63.70
2022-11-06T04:25:59.042Z,63.70
2022-11-06T04:28:54.703Z,64.00
2022-11-06T04:31:37.870Z,64.00
2022-11-06T04:34:22.953Z,64.20
2022-11-06T04:36:56.231Z,64.40
2022-11-06T04:39:31.351Z,64.30
2022-11-06T04:42:22.583Z,64.40
2022-11-06T04:45:06.832Z,64.50
2022-11-06T04:47:36.642Z,64.60
2022-11-06T04:50:07.134Z,64.60
2022-11-06T04:52:35.556Z,64.90
2022-11-06T04:55:02.704Z,65.30
2022-11-06T04:57:29.656Z,65.50
2022-11-06T04:59:57.031Z,65.50
2022-11-06T05:02:24.756Z,65.30
2022-11-06T05:04:51.922Z,65.10
2022-11-06T05:07:18.904Z,64.90
2022-11-06T05:09:45.910Z,64.90
2022-11-06T05:12:13.026Z,65.10
2022-11-06T05:14:40.001Z,65.40
2022-11-06T05:17:07.431Z,65.50
2022-11-06T05:19:34.419Z,65.80
2022-11-06T05:22:20.288Z,66.10
2022-11-06T05:24:48.070Z,67.10
2022-11-06T05:27:15.093Z,66.50
2022-11-06T05:29:42.109Z,66.50
2022-11-06T05:32:09.228Z,66.50
2022-11-06T05:34:36.197Z,66.60
2022-11-06T05:37:03.196Z,66.70
2022-11-06T05:39:30.217Z,66.60
2022-11-06T05:41:57.247Z,66.30
2022-11-06T05:44:24.449Z,66.20
2022-11-06T05:46:51.438Z,65.90
2022-11-06T05:49:21.475Z,65.80
2022-11-06T05:51:49.333Z,65.80
2022-11-06T05:54:16.379Z,65.70
2022-11-06T05:56:43.417Z,65.60
2022-11-06T05:59:10.474Z,65.70
2022-11-06T06:01:37.601Z,65.80
2022-11-06T06:04:04.773Z,65.80
2022-11-06T06:06:31.802Z,65.80
2022-11-06T06:08:58.882Z,65.70
2022-11-06T06:11:25.859Z,65.60
2022-11-06T06:13:52.818Z,65.50
2022-11-06T06:16:19.917Z,65.60
2022-11-06T06:18:50.867Z,65.60
2022-11-06T06:21:18.230Z,65.60
2022-11-06T06:23:45.292Z,65.30
2022-11-06T06:26:12.263Z,65.90
2022-11-06T06:28:39.322Z,64.80
2022-11-06T06:31:07.287Z,64.70
2022-11-06T06:33:39.297Z,64.50
2022-11-06T06:36:07.545Z,64.40
2022-11-06T06:38:35.374Z,64.20
2022-11-06T06:41:07.128Z,64.00
2022-11-06T06:43:35.342Z,63.90
2022-11-06T06:46:04.775Z,63.60
2022-11-06T06:48:32.350Z,63.70
2022-11-06T06:51:03.361Z,64.00
2022-11-06T06:53:34.302Z,61.80
2022-11-06T06:56:02.037Z,58.30
2022-11-06T06:58:30.044Z,55.30
2022-11-06T07:01:05.519Z,51.50
2022-11-06T07:03:33.565Z,48.80
2022-11-06T07:06:01.717Z,46.50
2022-11-06T07:08:30.704Z,44.10
2022-11-06T07:11:08.790Z,41.80
2022-11-06T07:13:36.698Z,40.10
2022-11-06T07:16:09.437Z,38.80
2022-11-06T07:18:38.727Z,37.60
2022-11-06T07:21:07.935Z,36.80
2022-11-06T07:23:35.982Z,36.30
2022-11-06T07:26:04.072Z,35.70
2022-11-06T07:28:34.841Z,34.90
2022-11-06T07:31:04.304Z,34.80
2022-11-06T07:33:31.446Z,34.70
2022-11-06T07:36:19.575Z,34.80
2022-11-06T07:38:47.074Z,35.10
2022-11-06T07:41:17.167Z,36.30
2022-11-06T07:44:02.122Z,37.30
2022-11-06T07:46:29.429Z,38.80
2022-11-06T07:49:09.296Z,39.90
2022-11-06T07:51:37.666Z,40.40
2022-11-06T07:54:04.700Z,41.10
2022-11-06T07:56:31.945Z,40.80
2022-11-06T07:58:58.914Z,40.40
2022-11-06T08:01:26.076Z,40.60
2022-11-06T08:03:53.113Z,40.50
2022-11-06T08:06:20.631Z,40.40
2022-11-06T08:08:47.925Z,40.10
2022-11-06T08:11:15.617Z,40.00
2022-11-06T08:13:44.042Z,39.60
2022-11-06T08:16:13.925Z,39.20
2022-11-06T08:18:41.938Z,38.60
2022-11-06T08:21:09.169Z,38.20
2022-11-06T08:23:36.631Z,37.80
2022-11-06T08:26:06.602Z,37.70
2022-11-06T08:28:34.203Z,36.70
2022-11-06T08:31:08.820Z,35.60
2022-11-06T08:33:37.449Z,33.50
2022-11-06T08:36:06.167Z,33.10
2022-11-06T08:38:33.697Z,32.30
2022-11-06T08:41:08.636Z,31.80
2022-11-06T08:43:36.082Z,31.40
2022-11-06T08:46:04.616Z,30.80
2022-11-06T08:48:33.476Z,30.00
2022-11-06T08:51:00.433Z,29.20
2022-11-06T08:53:27.551Z,28.50
2022-11-06T08:55:54.537Z,28.20
2022-11-06T08:58:21.403Z,27.60
2022-11-06T09:00:48.399Z,27.00
2022-11-06T09:03:17.922Z,26.30
2022-11-06T09:05:45.026Z,25.40
2022-11-06T09:08:12.065Z,24.90
2022-11-06T09:10:39.427Z,24.20
2022-11-06T09:13:06.748Z,24.70
2022-11-06T09:15:33.825Z,23.90
2022-11-06T09:18:00.722Z,23.50
2022-11-06T09:20:27.686Z,23.60
2022-11-06T09:22:54.998Z,23.60
2022-11-06T09:25:21.991Z,23.10
2022-11-06T09:27:58.544Z,23.00
2022-11-06T09:30:27.469Z,23.10
2022-11-06T09:32:55.438Z,23.50
2022-11-06T09:35:22.959Z,23.40
2022-11-06T09:37:49.948Z,23.20
2022-11-06T09:40:25.946Z,23.70
2022-11-06T09:42:55.747Z,24.00
2022-11-06T09:45:24.570Z,24.40
2022-11-06T09:48:17.871Z,24.50
2022-11-06T09:50:48.177Z,24.60
2022-11-06T09:53:38.163Z,24.50
2022-11-06T09:56:05.770Z,24.60
2022-11-06T09:58:36.894Z,25.00
2022-11-06T10:01:18.939Z,25.60
2022-11-06T10:03:51.216Z,26.10
2022-11-06T10:06:21.367Z,26.30
2022-11-06T10:08:49.612Z,26.80
2022-11-06T10:11:16.607Z,27.20
2022-11-06T10:13:55.796Z,27.70
2022-11-06T10:16:29.919Z,27.60
2022-11-06T10:19:00.589Z,27.60
2022-11-06T10:21:53.603Z,27.60
2022-11-06T10:24:20.442Z,27.50
2022-11-06T10:26:56.652Z,27.80
2022-11-06T10:29:30.827Z,27.20
2022-11-06T10:32:08.383Z,27.20
2022-11-06T10:34:41.647Z,27.50
2022-11-06T10:37:15.101Z,28.10
2022-11-06T10:39:42.053Z,28.40
2022-11-06T10:42:14.764Z,28.40
2022-11-06T10:44:44.704Z,27.40
2022-11-06T10:47:17.139Z,27.60
2022-11-06T10:49:51.834Z,27.60
2022-11-06T10:52:33.674Z,27.90
2022-11-06T10:55:13.440Z,27.70
2022-11-06T10:57:52.572Z,27.50
2022-11-06T11:00:19.472Z,28.10
2022-11-06T11:02:54.287Z,27.40
2022-11-06T11:05:22.290Z,27.30
2022-11-06T11:07:49.873Z,27.50
2022-11-06T11:10:25.510Z,27.50
2022-11-06T11:12:56.727Z,27.80
2022-11-06T11:15:24.790Z,27.50
2022-11-06T11:18:09.929Z,27.30
2022-11-06T11:20:37.519Z,27.70
2022-11-06T11:23:07.547Z,27.80
2022-11-06T11:25:34.523Z,27.70
2022-11-06T11:28:04.780Z,27.80
2022-11-06T11:30:32.343Z,27.90
2022-11-06T11:32:59.538Z,27.60
2022-11-06T11:35:28.004Z,28.00
2022-11-06T11:38:10.152Z,27.40
2022-11-06T11:40:37.885Z,27.60
2022-11-06T11:43:23.618Z,27.10
2022-11-06T11:46:14.914Z,27.40
2022-11-06T11:48:46.290Z,27.70
2022-11-06T11:51:13.066Z,28.00
2022-11-06T11:53:40.292Z,28.10
2022-11-06T11:56:07.682Z,27.80
2022-11-06T11:58:34.548Z,28.00
2022-11-06T12:01:03.308Z,28.20
2022-11-06T12:03:44.388Z,28.00
2022-11-06T12:06:13.065Z,27.50
2022-11-06T12:08:41.431Z,27.40
2022-11-06T12:11:12.943Z,27.10
2022-11-06T12:13:39.762Z,27.30
2022-11-06T12:16:16.957Z,26.90
2022-11-06T12:18:48.600Z,26.60
2022-11-06T12:21:23.158Z,26.60
2022-11-06T12:24:07.509Z,26.40
2022-11-06T12:26:43.173Z,26.20
2022-11-06T12:29:17.240Z,26.90
2022-11-06T12:31:53.027Z,26.80
2022-11-06T12:34:23.251Z,26.40
2022-11-06T12:37:08.409Z,26.70
2022-11-06T12:39:37.850Z,26.60
2022-11-06T12:42:07.131Z,26.70
2022-11-06T12:44:33.927Z,26.50
2022-11-06T12:47:26.992Z,26.10
2022-11-06T12:50:12.416Z,26.60
2022-11-06T12:53:02.133Z,26.70
2022-11-06T12:55:31.948Z,26.90
2022-11-06T12:58:03.878Z,26.80
2022-11-06T13:00:41.429Z,27.10
2022-11-06T13:03:09.160Z,27.30
2022-11-06T13:05:54.471Z,27.30
2022-11-06T13:08:21.263Z,27.20
2022-11-06T13:11:06.658Z,27.40
2022-11-06T13:13:39.607Z,27.70
2022-11-06T13:16:24.683Z,27.90
2022-11-06T13:19:06.590Z,27.80
2022-11-06T13:21:33.408Z,28.20
2022-11-06T13:24:07.894Z,28.40
2022-11-06T13:26:40.437Z,28.70
2022-11-06T13:29:10.152Z,28.70
2022-11-06T13:31:39.612Z,28.40
2022-11-06T13:34:07.038Z,28.90
2022-11-06T13:36:36.360Z,29.10
2022-11-06T13:39:06.800Z,29.70
2022-11-06T13:41:33.953Z,29.60
2022-11-06T13:44:02.837Z,29.80
2022-11-06T13:46:29.617Z,29.40
2022-11-06T13:49:09.326Z,29.30
2022-11-06T13:51:43.440Z,29.60
2022-11-06T13:54:23.227Z,30.30
2022-11-06T13:57:02.722Z,31.40
2022-11-06T13:59:36.345Z,32.20
2022-11-06T14:02:23.548Z,32.70
2022-11-06T14:04:54.043Z,32.90
2022-11-06T14:07:21.476Z,34.70
2022-11-06T14:09:48.782Z,35.90
2022-11-06T14:12:20.720Z,36.50
2022-11-06T14:14:47.973Z,36.90
2022-11-06T14:17:17.904Z,37.10
2022-11-06T14:19:51.244Z,37.70
2022-11-06T14:22:26.805Z,38.40
2022-11-06T14:25:00.033Z,38.10
2022-11-06T14:27:28.841Z,37.90
2022-11-06T14:30:07.053Z,38.80
2022-11-06T14:32:41.255Z,40.10
2022-11-06T14:35:29.792Z,41.00
2022-11-06T14:38:29.909Z,42.40
2022-11-06T14:40:58.239Z,43.60
2022-11-06T14:43:34.389Z,42.80
2022-11-06T14:46:16.318Z,44.20
2022-11-06T14:48:46.954Z,45.60
2022-11-06T14:51:15.606Z,46.90
2022-11-06T14:53:51.676Z,47.60
2022-11-06T14:56:31.104Z,48.30
2022-11-06T14:59:03.366Z,49.30
2022-11-06T15:01:32.290Z,49.60
2022-11-06T15:04:06.286Z,50.00
2022-11-06T15:06:33.176Z,50.60
2022-11-06T15:09:02.923Z,50.80
2022-11-06T15:11:32.580Z,51.00
2022-11-06T15:14:02.220Z,51.50
2022-11-06T15:16:50.651Z,51.90
2022-11-06T15:19:29.767Z,52.90
2022-11-06T15:21:57.713Z,53.80
2022-11-06T15:24:32.951Z,54.00
2022-11-06T15:27:08.634Z,54.80
2022-11-06T15:29:42.067Z,55.40
2022-11-06T15:32:28.089Z,55.50
2022-11-06T15:35:13.317Z,56.10
2022-11-06T15:37:46.919Z,56.40
2022-11-06T15:40:23.539Z,56.30
2022-11-06T15:42:51.374Z,57.00
2022-11-06T15:45:18.240Z,57.10
2022-11-06T15:47:59.803Z,57.30
2022-11-06T15:50:29.783Z,58.10
2022-11-06T15:53:23.354Z,58.20
2022-11-06T15:56:05.486Z,59.20
2022-11-06T15:58:37.641Z,59.20
2022-11-06T16:01:07.058Z,59.60
2022-11-06T16:03:47.395Z,59.80
2022-11-06T16:06:14.784Z,60.40
2022-11-06T16:08:42.244Z,60.10
2022-11-06T16:11:16.892Z,60.00
2022-11-06T16:13:46.774Z,59.90
2022-11-06T16:16:35.276Z,59.80
2022-11-06T16:19:05.295Z,59.90
2022-11-06T16:21:34.961Z,59.70
2022-11-06T16:24:12.334Z,59.90
2022-11-06T16:26:46.119Z,60.20
2022-11-06T16:29:29.915Z,60.40
2022-11-06T16:32:02.468Z,60.70
2022-11-06T16:34:32.193Z,60.60
2022-11-06T16:37:06.203Z,60.60
2022-11-06T16:39:49.999Z,60.70
2022-11-06T16:42:29.697Z,61.10
2022-11-06T16:45:20.122Z,61.10
2022-11-06T16:48:10.012Z,61.10
2022-11-06T16:50:47.140Z,61.70
2022-11-06T16:53:26.124Z,61.60
2022-11-06T16:56:00.713Z,62.00
2022-11-06T16:58:32.327Z,62.10
2022-11-06T17:01:05.710Z,62.40
2022-11-06T17:03:47.164Z,62.60
2022-11-06T17:06:35.162Z,62.90
2022-11-06T17:09:24.311Z,63.00
2022-11-06T17:11:56.321Z,62.60
2022-11-06T17:14:24.403Z,62.50
2022-11-06T17:16:54.133Z,62.60
2022-11-06T17:19:22.079Z,62.90
2022-11-06T17:21:50.678Z,63.10
2022-11-06T17:24:36.131Z,63.10
2022-11-06T17:27:04.216Z,63.20
2022-11-06T17:29:31.559Z,63.20
2022-11-06T17:31:58.500Z,63.40
2022-11-06T17:34:25.447Z,63.50
2022-11-06T17:36:52.371Z,63.70
2022-11-06T17:39:19.501Z,63.70
2022-11-06T17:41:46.470Z,63.90
2022-11-06T17:44:13.580Z,63.90
2022-11-06T17:46:42.366Z,64.10
2022-11-06T17:49:15.828Z,64.10
2022-11-06T17:51:50.745Z,63.90
2022-11-06T17:54:26.260Z,63.70
2022-11-06T17:56:58.945Z,63.50
2022-11-06T17:59:26.128Z,63.50
2022-11-06T18:01:54.166Z,63.20
2022-11-06T18:04:22.985Z,63.20
2022-11-06T18:06:52.177Z,63.20
2022-11-06T18:09:20.551Z,63.10
2022-11-06T18:11:50.217Z,63.00
2022-11-06T18:14:17.986Z,62.90
2022-11-06T18:16:44.947Z,62.90
2022-11-06T18:19:15.416Z,63.00
2022-11-06T18:21:42.466Z,62.90
2022-11-06T18:24:09.522Z,62.90
2022-11-06T18:26:37.417Z,62.90
2022-11-06T18:29:06.210Z,62.80
2022-11-06T18:31:33.598Z,62.70
2022-11-06T18:34:00.674Z,62.70
2022-11-06T18:36:27.662Z,62.80
2022-11-06T18:38:54.602Z,62.90
2022-11-06T18:41:38.798Z,62.80
2022-11-06T18:44:10.669Z,63.00
2022-11-06T18:46:37.634Z,63.00
2022-11-06T18:49:04.602Z,63.10
2022-11-06T18:51:35.733Z,63.20
2022-11-06T18:54:06.487Z,63.50
2022-11-06T18:56:36.216Z,63.80
2022-11-06T18:59:07.626Z,63.90
2022-11-06T19:01:35.496Z,63.90
2022-11-06T19:04:03.916Z,63.90
2022-11-06T19:06:31.733Z,63.90
2022-11-06T19:08:58.949Z,64.00
2022-11-06T19:11:25.978Z,64.00
2022-11-06T19:13:53.254Z,64.10
2022-11-06T19:16:20.449Z,64.10
2022-11-06T19:21:30.392Z,63.90
2022-11-06T19:24:04.533Z,63.90
2022-11-06T19:26:34.112Z,63.80
2022-11-06T19:29:01.346Z,63.90
2022-11-06T19:31:29.968Z,64.70
2022-11-06T19:33:59.036Z,64.00
2022-11-06T19:36:26.605Z,64.00
2022-11-06T19:38:54.313Z,64.00
2022-11-06T19:41:21.639Z,63.90
2022-11-06T19:43:48.656Z,63.90
2022-11-06T19:46:24.089Z,64.00
2022-11-06T19:48:51.819Z,63.90
2022-11-06T19:51:19.159Z,63.90
2022-11-06T19:53:46.542Z,63.90
2022-11-06T19:56:16.713Z,63.80
2022-11-06T19:58:44.121Z,64.00
2022-11-06T20:01:15.672Z,64.40
2022-11-06T20:03:43.652Z,64.70
2022-11-06T20:06:18.155Z,64.80
2022-11-06T20:08:50.344Z,64.70
2022-11-06T20:11:18.219Z,64.70
2022-11-06T20:13:46.020Z,64.60
2022-11-06T20:16:18.841Z,64.70
2022-11-06T20:18:57.335Z,64.70
2022-11-06T20:21:28.980Z,64.70
2022-11-06T20:23:57.304Z,64.70
2022-11-06T20:26:24.505Z,65.00
2022-11-06T20:28:52.044Z,65.30
2022-11-06T20:31:19.859Z,65.30
2022-11-06T20:33:48.016Z,65.10
2022-11-06T20:36:25.794Z,65.00
2022-11-06T20:38:54.494Z,65.00
2022-11-06T20:41:23.300Z,64.90
2022-11-06T20:43:51.995Z,65.20
2022-11-06T20:46:20.094Z,65.30
2022-11-06T20:48:47.598Z,65.40
2022-11-06T20:51:16.708Z,65.40
2022-11-06T20:53:43.956Z,65.60
2022-11-06T20:56:14.117Z,65.60
2022-11-06T20:58:41.515Z,65.70
2022-11-06T21:01:17.346Z,65.80
2022-11-06T21:03:44.735Z,66.00
2022-11-06T21:06:12.093Z,66.10
2022-11-06T21:08:40.439Z,66.30
2022-11-06T21:11:16.664Z,66.40
2022-11-06T21:13:46.771Z,66.30
2022-11-06T21:16:13.695Z,66.40
2022-11-06T21:18:41.789Z,66.40
2022-11-06T21:21:11.741Z,66.60
2022-11-06T21:23:39.458Z,66.60
2022-11-06T21:26:17.812Z,66.70
2022-11-06T21:28:45.169Z,66.70
2022-11-06T21:31:17.508Z,66.70
2022-11-06T21:33:47.603Z,66.70
2022-11-06T21:36:18.173Z,66.60
2022-11-06T21:38:45.515Z,66.60
2022-11-06T21:41:15.295Z,66.50
2022-11-06T21:43:43.875Z,66.50
2022-11-06T21:46:12.972Z,66.40
2022-11-06T21:48:46.236Z,66.40
2022-11-06T21:51:20.083Z,66.40
2022-11-06T21:54:06.734Z,66.30
2022-11-06T21:56:34.444Z,66.10
2022-11-06T21:59:03.101Z,66.20
2022-11-06T22:01:30.945Z,66.30
2022-11-06T22:03:58.463Z,66.20
2022-11-06T22:06:27.099Z,66.40
2022-11-06T22:08:57.015Z,66.60
2022-11-06T22:11:35.734Z,66.60
2022-11-06T22:14:06.516Z,66.60
2022-11-06T22:16:39.522Z,66.70
2022-11-06T22:19:07.920Z,66.70
2022-11-06T22:21:36.391Z,66.80
2022-11-06T22:24:03.625Z,66.80
2022-11-06T22:26:32.968Z,66.80
2022-11-06T22:29:02.362Z,66.80
2022-11-06T22:31:29.733Z,67.00
2022-11-06T22:33:57.639Z,67.10
2022-11-06T22:36:25.323Z,67.40
2022-11-06T22:38:53.446Z,67.60
2022-11-06T22:41:23.620Z,67.40
2022-11-06T22:43:51.900Z,67.30
2022-11-06T22:46:23.462Z,67.30
2022-11-06T22:48:51.824Z,67.40
2022-11-06T22:51:24.785Z,67.40
2022-11-06T22:53:52.492Z,67.60
2022-11-06T22:56:21.401Z,67.70
2022-11-06T22:58:52.748Z,67.80
2022-11-06T23:01:23.261Z,67.70
2022-11-06T23:03:50.788Z,67.50
2022-11-06T23:06:17.743Z,67.30
2022-11-06T23:08:47.095Z,67.10
2022-11-06T23:11:17.269Z,67.10
2022-11-06T23:13:44.697Z,67.00
2022-11-06T23:16:14.538Z,66.80
2022-11-06T23:18:41.770Z,66.50
2022-11-06T23:21:17.338Z,66.20
2022-11-06T23:23:45.697Z,66.00
2022-11-06T23:26:14.938Z,65.80
2022-11-06T23:28:43.593Z,65.70
2022-11-06T23:31:12.228Z,65.70
2022-11-06T23:33:39.610Z,65.60
2022-11-06T23:36:08.183Z,65.60
2022-11-06T23:38:35.730Z,65.60
2022-11-06T23:41:45.914Z,66.50
2022-11-06T23:44:33.098Z,66.00
2022-11-06T23:47:00.986Z,65.80
2022-11-06T23:49:28.115Z,65.60
2022-11-06T23:51:55.098Z,65.60
2022-11-06T23:54:22.510Z,65.40
2022-11-06T23:56:49.542Z,65.30
2022-11-06T23:59:16.563Z,65.20
